Hovedside
METAR-TAF:

METAR-TAF

Lufthavner :

Tromsø, Norge

Tromsø lufthavn

breddegrad: 69-41N, lengdegrad: 018-55E, høyde over havet: 1 m

Gjeldene værobservasjon

Denne rapporten ble laget for 22 minutter siden, klokken 07:20 UTC
Vind 3 kt fra Sør, skiftende mellom Sørøst og Sørvest
Temperatur -3°C
Luftfuktighet 86%
Trykk 1021 hPa
Sikt 10 km eller mer
ingen skyer under 1500 m og ingen bygeskyer

METAR: ENTC 240720Z 17003KT 130V220 CAVOK M03/M05 Q1021 NOSIG RMK WIND 2600FT 19007KT

Tid: 09:42 (07:42 UTC)

Varsel

Varsel gyldig fra 24. klokken 06 UTC til 25. klokken 06 UTC
Vind 8 kt fra Sør-sørvest
Sikt 10 km eller mer
ingen skyer under 1500 m og ingen bygeskyer

TAF: ENTC 2406/2506 20008KT CAVOK

Værobservasjoner og værvarsel for over 4000 flyplasser (METAR- og TAF-rapporter).

Tilgjengelige stasjoner er representert av de røde og gule prikkene på kartet.

Hold musepekeren over prikken for å se navnet på stasjonen.

Klikk så for å se værobservasjoner og -varsler.

For å forandre kartet kan du klikke på den grønne knappen med svart kryss for å zoome inn, på den grønne knappen med strek for å zoome ut, eller på de grønne pilene for å se tilstøtende kart.


METAR-TAF: